Bluefin — WDE9397 — position and weather

sailwx.info

Track history (hours):
 
Tides and Currents Weather Stations Pressure Air Temp Water Temp Dewpoint Dewpoint Depression Visibility Wind Speed Wind Dir Waves Ship Positions

Bluefin

Owner: Penn Maritime Inc., SEATTLE, WA. More information available from US FCC via Universal Licensing System and Coast Guard Vessel Documentation Center.

Last reported at 2014-Dec-22 09:24 UTC. Time now 2014-Dec-22 11:21 UTC.
Position N 40°38' W 074°12'.

Length 166 m; draft 6.6 m.

Type: Towing. MMSI: 367416750.

Date/timePositionNaut miles runAvg speedWind from/ knotsBaromVisibWave heightAir tempDewpointWater temp
2014-Dec-22 09:24N 40°38' W 074°12'0 0.0
2014-Dec-22 08:09N 40°38' W 074°12'0 0.1
2014-Dec-22 07:27N 40°38' W 074°12'4 4.7
2014-Dec-22 06:31N 40°39' W 074°07'0 0.0
2014-Dec-22 05:31N 40°39' W 074°07'0 0.0
2014-Dec-22 04:33N 40°39' W 074°07'0 0.1
2014-Dec-22 03:32N 40°39' W 074°07'0 0.0
2014-Dec-22 02:29N 40°39' W 074°07'0 0.0
2014-Dec-22 01:29N 40°39' W 074°07'0 0.0
2014-Dec-22 00:29N 40°39' W 074°07'0 0.0
2014-Dec-21 23:29N 40°39' W 074°07'1 0.6
2014-Dec-21 22:34N 40°39' W 074°07'0 0.0
2014-Dec-21 21:33N 40°39' W 074°07'0 0.0
2014-Dec-21 20:33N 40°39' W 074°07'1 0.5
2014-Dec-21 19:33N 40°39' W 074°07'0 0.2
2014-Dec-21 18:33N 40°39' W 074°06'3 2.8
2014-Dec-21 17:33N 40°39' W 074°03'0 0.0
2014-Dec-21 16:33N 40°39' W 074°03'0 0.0
2014-Dec-21 15:33N 40°39' W 074°03'0 0.1
2014-Dec-21 14:33N 40°39' W 074°03'6 6.1
2014-Dec-21 13:33N 40°39' W 074°11'10 6.9
2014-Dec-21 12:07N 40°30' W 074°17'1 0.4
2014-Dec-21 10:26N 40°31' W 074°18'0 0.0
2014-Dec-21 06:19N 40°31' W 074°18'0 0.0
2014-Dec-21 03:28N 40°31' W 074°18'0 0.0
2014-Dec-21 02:11N 40°31' W 074°18'0 0.0
2014-Dec-21 00:28N 40°31' W 074°18'2 1.4
2014-Dec-20 23:10N 40°30' W 074°15'0 0.0
2014-Dec-20 22:32N 40°30' W 074°15'0 0.0
2014-Dec-20 21:09N 40°30' W 074°15'0 0.0
2014-Dec-20 19:21N 40°30' W 074°16'6 6.8
2014-Dec-20 18:32N 40°35' W 074°13'6 6.3
2014-Dec-20 17:33N 40°39' W 074°07'1 1.2
2014-Dec-20 16:33N 40°39' W 074°05'0 0.0
2014-Dec-20 15:30N 40°39' W 074°05'0 0.0
2014-Dec-20 14:30N 40°39' W 074°05'0 0.0
2014-Dec-20 13:30N 40°39' W 074°05'0 0.0
2014-Dec-20 12:30N 40°39' W 074°05'0 0.0
2014-Dec-20 11:30N 40°39' W 074°05'0 0.0
2014-Dec-20 10:30N 40°39' W 074°05'0 0.0
2014-Dec-20 09:33N 40°39' W 074°05'0 0.0
2014-Dec-20 08:30N 40°39' W 074°05'0 0.0
2014-Dec-20 07:30N 40°39' W 074°05'0 0.0
2014-Dec-20 06:30N 40°39' W 074°05'0 0.0
2014-Dec-20 05:30N 40°39' W 074°05'0 0.0
2014-Dec-20 04:33N 40°39' W 074°05'0 0.0
2014-Dec-20 03:30N 40°39' W 074°05'0 0.0
2014-Dec-20 02:33N 40°39' W 074°05'0 0.0
2014-Dec-20 01:30N 40°39' W 074°05'0 0.0
2014-Dec-20 00:33N 40°39' W 074°05'0 0.0
2014-Dec-19 23:30N 40°39' W 074°05'0 0.0
2014-Dec-19 22:33N 40°39' W 074°05'0 0.0
2014-Dec-19 21:30N 40°39' W 074°05'4 3.8
2014-Dec-19 20:32N 40°39' W 074°10'0 0.0
2014-Dec-19 19:26N 40°39' W 074°10'0 0.0
2014-Dec-19 18:32N 40°39' W 074°10'3 3.1
2014-Dec-19 17:33N 40°39' W 074°06'1 0.7
2014-Dec-19 16:28N 40°39' W 074°05'0 0.0
2014-Dec-19 15:28N 40°39' W 074°05'0 0.0
2014-Dec-19 14:28N 40°39' W 074°05'0 0.0
2014-Dec-19 13:28N 40°39' W 074°05'0 0.0
2014-Dec-19 12:28N 40°39' W 074°05'0 0.0
2014-Dec-19 11:31N 40°39' W 074°05'0 0.0
2014-Dec-19 10:31N 40°39' W 074°05'3 3.6
2014-Dec-19 09:33N 40°36' W 074°02'1 0.9
2014-Dec-19 08:31N 40°36' W 074°01'0 0.1
2014-Dec-19 07:25N 40°36' W 074°01'0 0.1
2014-Dec-19 06:19N 40°36' W 074°01'0 0.1
2014-Dec-19 05:14N 40°36' W 074°01'0 0.0
2014-Dec-19 04:16N 40°36' W 074°01'0 0.0
2014-Dec-19 03:31N 40°36' W 074°01'0 0.0
2014-Dec-19 02:22N 40°36' W 074°01'0 0.0
2014-Dec-19 01:28N 40°36' W 074°01'0 0.0
2014-Dec-19 00:31N 40°36' W 074°01'0 0.0
2014-Dec-18 23:22N 40°36' W 074°01'0 0.0
2014-Dec-18 22:31N 40°36' W 074°01'0 0.0
2014-Dec-18 21:19N 40°36' W 074°01'0 0.0
2014-Dec-18 20:19N 40°36' W 074°01'0 0.0
2014-Dec-18 19:22N 40°36' W 074°01'0 0.1
2014-Dec-18 18:28N 40°36' W 074°01'0 0.0
2014-Dec-18 17:07N 40°36' W 074°01'0 0.0
2014-Dec-18 16:31N 40°36' W 074°01'0 0.0
2014-Dec-18 15:31N 40°36' W 074°01'0 0.0
2014-Dec-18 14:22N 40°36' W 074°01'0 0.0
2014-Dec-18 13:25N 40°36' W 074°01'0 0.0
2014-Dec-18 12:25N 40°36' W 074°01'0 0.0
2014-Dec-18 11:31N 40°36' W 074°01'0 0.0
2014-Dec-18 09:31N 40°36' W 074°01'0 0.0
2014-Dec-18 08:25N 40°36' W 074°01'0 0.0
2014-Dec-18 07:22N 40°36' W 074°01'0 0.0
2014-Dec-18 05:28N 40°36' W 074°01'0 0.0
2014-Dec-18 04:25N 40°36' W 074°01'0 0.0
2014-Dec-18 03:13N 40°36' W 074°01'0 0.0
2014-Dec-18 02:31N 40°36' W 074°01'0 0.0
2014-Dec-18 01:31N 40°36' W 074°01'0 0.0
2014-Dec-18 00:25N 40°36' W 074°01'0 0.0
2014-Dec-17 23:25N 40°36' W 074°01'0 0.0
2014-Dec-17 21:07N 40°36' W 074°01'0 0.1
2014-Dec-17 19:25N 40°36' W 074°01'0 0.0
2014-Dec-17 18:31N 40°36' W 074°01'0 0.1
2014-Dec-17 17:13N 40°36' W 074°01'0 0.0
2014-Dec-17 16:31N 40°36' W 074°01'0 0.0
2014-Dec-17 15:25N 40°36' W 074°01'0 0.0
2014-Dec-17 14:04N 40°36' W 074°01'0 0.1
2014-Dec-17 13:31N 40°36' W 074°01'0 0.0
2014-Dec-17 12:31N 40°36' W 074°01'0 0.0
2014-Dec-17 11:28N 40°36' W 074°01'0 0.0
2014-Dec-17 10:13N 40°36' W 074°01'0 0.1
2014-Dec-17 09:22N 40°36' W 074°01'0 0.0
2014-Dec-17 08:31N 40°36' W 074°01'0 0.0
2014-Dec-17 07:31N 40°36' W 074°01'0 0.0
2014-Dec-17 06:28N 40°36' W 074°01'0 0.0
2014-Dec-17 05:28N 40°36' W 074°01'0 0.1
2014-Dec-17 04:25N 40°36' W 074°01'0 0.0
2014-Dec-17 03:19N 40°36' W 074°01'0 0.0
2014-Dec-17 01:28N 40°36' W 074°01'0 0.0
2014-Dec-17 00:19N 40°36' W 074°01'0 0.1
2014-Dec-16 23:26N 40°36' W 074°01'0 0.1
2014-Dec-16 22:32N 40°36' W 074°01'0 0.0
2014-Dec-16 21:32N 40°36' W 074°01'0 0.0
2014-Dec-16 20:32N 40°36' W 074°01'0 0.0
2014-Dec-16 19:32N 40°36' W 074°01'0 0.0
2014-Dec-16 18:32N 40°36' W 074°01'0 0.0
2014-Dec-16 17:29N 40°36' W 074°01'0 0.0
2014-Dec-16 16:32N 40°36' W 074°01'0 0.0
2014-Dec-16 15:32N 40°36' W 074°01'0 0.1
2014-Dec-16 14:11N 40°36' W 074°01'0 0.0
2014-Dec-16 13:32N 40°36' W 074°01'0 0.1
2014-Dec-16 12:32N 40°36' W 074°01'0 0.0
2014-Dec-16 11:29N 40°36' W 074°01'0 0.0
2014-Dec-16 10:26N 40°36' W 074°01'0 0.1
2014-Dec-16 09:32N 40°36' W 074°01'0 0.0
2014-Dec-16 08:32N 40°36' W 074°01'0 0.0
2014-Dec-16 07:32N 40°36' W 074°01'0 0.0
2014-Dec-16 06:14N 40°36' W 074°01'0 0.0
2014-Dec-16 04:08N 40°36' W 074°01'0 0.0
2014-Dec-16 03:32N 40°36' W 074°01'0 0.1
2014-Dec-16 02:14N 40°36' W 074°01'0 0.0
2014-Dec-16 01:22N 40°36' W 074°01'0 0.0
2014-Dec-15 22:23N 40°36' W 074°01'0 0.0
2014-Dec-15 21:32N 40°36' W 074°01'0 0.1
2014-Dec-15 20:32N 40°36' W 074°01'0 0.0
2014-Dec-15 19:29N 40°36' W 074°01'0 0.0
2014-Dec-15 18:32N 40°36' W 074°01'0 0.0
2014-Dec-15 17:29N 40°36' W 074°01'0 0.0
2014-Dec-15 16:26N 40°36' W 074°01'0 0.1
2014-Dec-15 15:20N 40°36' W 074°01'0 0.0
2014-Dec-15 14:08N 40°36' W 074°01'0 0.0
2014-Dec-15 13:32N 40°36' W 074°01'0 0.1
2014-Dec-15 12:23N 40°36' W 074°01'0 0.0
2014-Dec-15 11:26N 40°36' W 074°01'0 0.0
2014-Dec-15 10:23N 40°36' W 074°01'0 0.0
2014-Dec-15 09:32N 40°36' W 074°01'0 0.0
2014-Dec-15 08:29N 40°36' W 074°01'0 0.0
2014-Dec-15 07:23N 40°36' W 074°01'0 0.1
2014-Dec-15 06:29N 40°36' W 074°01'0 0.0
2014-Dec-15 05:32N 40°36' W 074°01'0 0.0
2014-Dec-15 03:29N 40°36' W 074°01'0 0.0
2014-Dec-15 01:32N 40°36' W 074°01'0 0.0
2014-Dec-15 00:32N 40°36' W 074°01'0 0.0
2014-Dec-14 22:20N 40°36' W 074°01'0 0.0
2014-Dec-14 21:23N 40°36' W 074°01'0 0.0
2014-Dec-14 20:05N 40°36' W 074°01'0 0.0
2014-Dec-14 19:26N 40°36' W 074°01'0 0.0
2014-Dec-14 18:14N 40°36' W 074°01'0 0.0
2014-Dec-14 17:20N 40°36' W 074°01'0 0.0
2014-Dec-14 16:29N 40°36' W 074°01'0 0.1
2014-Dec-14 15:29N 40°36' W 074°01'0 0.0
2014-Dec-14 14:29N 40°36' W 074°01'0 0.0
2014-Dec-14 12:05N 40°36' W 074°01'0 0.0
2014-Dec-14 11:26N 40°36' W 074°01'0 0.0
2014-Dec-14 08:26N 40°36' W 074°01'0 0.0
2014-Dec-14 07:32N 40°36' W 074°01'0 0.0
2014-Dec-14 06:29N 40°36' W 074°01'0 0.0
2014-Dec-14 05:23N 40°36' W 074°01'0 0.0
2014-Dec-14 04:26N 40°36' W 074°01'0 0.0
2014-Dec-14 03:32N 40°36' W 074°01'0 0.0
2014-Dec-14 02:20N 40°36' W 074°01'0 0.0
2014-Dec-14 00:08N 40°36' W 074°01'5 8.0
2014-Dec-13 23:30N 40°39' W 074°07'0 0.0
2014-Dec-13 22:33N 40°39' W 074°07'0 0.0
2014-Dec-13 21:33N 40°39' W 074°07'1 0.6
2014-Dec-13 20:32N 40°39' W 074°07'0 0.0
2014-Dec-13 19:32N 40°39' W 074°07'0 0.0
2014-Dec-13 18:32N 40°39' W 074°07'0 0.2
2014-Dec-13 17:33N 40°39' W 074°07'5 4.5
2014-Dec-13 16:24N 40°36' W 074°01'0 0.0
2014-Dec-13 14:03N 40°36' W 074°01'0 0.0
2014-Dec-13 13:28N 40°36' W 074°01'0 0.0
2014-Dec-13 12:34N 40°36' W 074°01'0 0.0
2014-Dec-13 11:34N 40°36' W 074°01'0 0.0
2014-Dec-13 10:28N 40°36' W 074°01'0 0.0
2014-Dec-13 09:31N 40°36' W 074°01'0 0.0
2014-Dec-13 08:30N 40°36' W 074°01'0 0.0
2014-Dec-13 07:31N 40°36' W 074°01'0 0.0
2014-Dec-13 06:30N 40°36' W 074°01'0 0.0
2014-Dec-13 04:12N 40°36' W 074°01'0 0.0
2014-Dec-13 03:09N 40°36' W 074°01'0 0.0
2014-Dec-13 02:24N 40°36' W 074°01'0 0.0
2014-Dec-13 01:09N 40°36' W 074°01'0 0.0
2014-Dec-13 00:30N 40°36' W 074°01'0 0.0
2014-Dec-12 23:24N 40°36' W 074°01'0 0.0
2014-Dec-12 22:30N 40°36' W 074°01'0 0.0
2014-Dec-12 20:18N 40°36' W 074°01'4 5.6
2014-Dec-12 19:34N 40°39' W 074°05'0 0.4
2014-Dec-12 18:33N 40°39' W 074°05'0 0.1
2014-Dec-12 17:33N 40°39' W 074°06'0 0.0
2014-Dec-12 16:30N 40°39' W 074°06'0 0.0
2014-Dec-12 15:30N 40°39' W 074°06'0 0.0
2014-Dec-12 14:33N 40°39' W 074°06'0 0.0
2014-Dec-12 13:33N 40°39' W 074°06'0 0.0
2014-Dec-12 12:24N 40°39' W 074°06'0 0.0
2014-Dec-12 11:30N 40°39' W 074°06'0 0.0
2014-Dec-12 10:33N 40°39' W 074°06'0 0.0
2014-Dec-12 09:33N 40°39' W 074°06'  
Track history (hours):
 
Tides and Currents Weather Stations Pressure Air Temp Water Temp Dewpoint Dewpoint Depression Visibility Wind Speed Wind Dir Waves Ship Positions

Bluefin

Owner: Penn Maritime Inc., SEATTLE, WA. More information available from US FCC via Universal Licensing System and Coast Guard Vessel Documentation Center.

Last reported at 2014-Dec-22 09:24 UTC. Time now 2014-Dec-22 11:21 UTC.
Position N 40°38' W 074°12'.

Length 166 m; draft 6.6 m.

Type: Towing. MMSI: 367416750.

Date/timePositionNaut miles runAvg speedWind from/ knotsBaromVisibWave heightAir tempDewpointWater temp
2014-Dec-22 09:24N 40°38' W 074°12'0 0.0
2014-Dec-22 08:09N 40°38' W 074°12'0 0.1
2014-Dec-22 07:27N 40°38' W 074°12'4 4.7
2014-Dec-22 06:31N 40°39' W 074°07'0 0.0
2014-Dec-22 05:31N 40°39' W 074°07'0 0.0
2014-Dec-22 04:33N 40°39' W 074°07'0 0.1
2014-Dec-22 03:32N 40°39' W 074°07'0 0.0
2014-Dec-22 02:29N 40°39' W 074°07'0 0.0
2014-Dec-22 01:29N 40°39' W 074°07'0 0.0
2014-Dec-22 00:29N 40°39' W 074°07'0 0.0
2014-Dec-21 23:29N 40°39' W 074°07'1 0.6
2014-Dec-21 22:34N 40°39' W 074°07'0 0.0
2014-Dec-21 21:33N 40°39' W 074°07'0 0.0
2014-Dec-21 20:33N 40°39' W 074°07'1 0.5
2014-Dec-21 19:33N 40°39' W 074°07'0 0.2
2014-Dec-21 18:33N 40°39' W 074°06'3 2.8
2014-Dec-21 17:33N 40°39' W 074°03'0 0.0
2014-Dec-21 16:33N 40°39' W 074°03'0 0.0
2014-Dec-21 15:33N 40°39' W 074°03'0 0.1
2014-Dec-21 14:33N 40°39' W 074°03'6 6.1
2014-Dec-21 13:33N 40°39' W 074°11'10 6.9
2014-Dec-21 12:07N 40°30' W 074°17'1 0.4
2014-Dec-21 10:26N 40°31' W 074°18'0 0.0
2014-Dec-21 06:19N 40°31' W 074°18'0 0.0
2014-Dec-21 03:28N 40°31' W 074°18'0 0.0
2014-Dec-21 02:11N 40°31' W 074°18'0 0.0
2014-Dec-21 00:28N 40°31' W 074°18'2 1.4
2014-Dec-20 23:10N 40°30' W 074°15'0 0.0
2014-Dec-20 22:32N 40°30' W 074°15'0 0.0
2014-Dec-20 21:09N 40°30' W 074°15'0 0.0
2014-Dec-20 19:21N 40°30' W 074°16'6 6.8
2014-Dec-20 18:32N 40°35' W 074°13'6 6.3
2014-Dec-20 17:33N 40°39' W 074°07'1 1.2
2014-Dec-20 16:33N 40°39' W 074°05'0 0.0
2014-Dec-20 15:30N 40°39' W 074°05'0 0.0
2014-Dec-20 14:30N 40°39' W 074°05'0 0.0
2014-Dec-20 13:30N 40°39' W 074°05'0 0.0
2014-Dec-20 12:30N 40°39' W 074°05'0 0.0
2014-Dec-20 11:30N 40°39' W 074°05'0 0.0
2014-Dec-20 10:30N 40°39' W 074°05'0 0.0
2014-Dec-20 09:33N 40°39' W 074°05'0 0.0
2014-Dec-20 08:30N 40°39' W 074°05'0 0.0
2014-Dec-20 07:30N 40°39' W 074°05'0 0.0
2014-Dec-20 06:30N 40°39' W 074°05'0 0.0
2014-Dec-20 05:30N 40°39' W 074°05'0 0.0
2014-Dec-20 04:33N 40°39' W 074°05'0 0.0
2014-Dec-20 03:30N 40°39' W 074°05'0 0.0
2014-Dec-20 02:33N 40°39' W 074°05'0 0.0
2014-Dec-20 01:30N 40°39' W 074°05'0 0.0
2014-Dec-20 00:33N 40°39' W 074°05'0 0.0
2014-Dec-19 23:30N 40°39' W 074°05'0 0.0
2014-Dec-19 22:33N 40°39' W 074°05'0 0.0
2014-Dec-19 21:30N 40°39' W 074°05'4 3.8
2014-Dec-19 20:32N 40°39' W 074°10'0 0.0
2014-Dec-19 19:26N 40°39' W 074°10'0 0.0
2014-Dec-19 18:32N 40°39' W 074°10'3 3.1
2014-Dec-19 17:33N 40°39' W 074°06'1 0.7
2014-Dec-19 16:28N 40°39' W 074°05'0 0.0
2014-Dec-19 15:28N 40°39' W 074°05'0 0.0
2014-Dec-19 14:28N 40°39' W 074°05'0 0.0
2014-Dec-19 13:28N 40°39' W 074°05'0 0.0
2014-Dec-19 12:28N 40°39' W 074°05'0 0.0
2014-Dec-19 11:31N 40°39' W 074°05'0 0.0
2014-Dec-19 10:31N 40°39' W 074°05'3 3.6
2014-Dec-19 09:33N 40°36' W 074°02'1 0.9
2014-Dec-19 08:31N 40°36' W 074°01'0 0.1
2014-Dec-19 07:25N 40°36' W 074°01'0 0.1
2014-Dec-19 06:19N 40°36' W 074°01'0 0.1
2014-Dec-19 05:14N 40°36' W 074°01'0 0.0
2014-Dec-19 04:16N 40°36' W 074°01'0 0.0
2014-Dec-19 03:31N 40°36' W 074°01'0 0.0
2014-Dec-19 02:22N 40°36' W 074°01'0 0.0
2014-Dec-19 01:28N 40°36' W 074°01'0 0.0
2014-Dec-19 00:31N 40°36' W 074°01'0 0.0
2014-Dec-18 23:22N 40°36' W 074°01'0 0.0
2014-Dec-18 22:31N 40°36' W 074°01'0 0.0
2014-Dec-18 21:19N 40°36' W 074°01'0 0.0
2014-Dec-18 20:19N 40°36' W 074°01'0 0.0
2014-Dec-18 19:22N 40°36' W 074°01'0 0.1
2014-Dec-18 18:28N 40°36' W 074°01'0 0.0
2014-Dec-18 17:07N 40°36' W 074°01'0 0.0
2014-Dec-18 16:31N 40°36' W 074°01'0 0.0
2014-Dec-18 15:31N 40°36' W 074°01'0 0.0
2014-Dec-18 14:22N 40°36' W 074°01'0 0.0
2014-Dec-18 13:25N 40°36' W 074°01'0 0.0
2014-Dec-18 12:25N 40°36' W 074°01'0 0.0
2014-Dec-18 11:31N 40°36' W 074°01'0 0.0
2014-Dec-18 09:31N 40°36' W 074°01'0 0.0
2014-Dec-18 08:25N 40°36' W 074°01'0 0.0
2014-Dec-18 07:22N 40°36' W 074°01'0 0.0
2014-Dec-18 05:28N 40°36' W 074°01'0 0.0
2014-Dec-18 04:25N 40°36' W 074°01'0 0.0
2014-Dec-18 03:13N 40°36' W 074°01'0 0.0
2014-Dec-18 02:31N 40°36' W 074°01'0 0.0
2014-Dec-18 01:31N 40°36' W 074°01'0 0.0
2014-Dec-18 00:25N 40°36' W 074°01'0 0.0
2014-Dec-17 23:25N 40°36' W 074°01'0 0.0
2014-Dec-17 21:07N 40°36' W 074°01'0 0.1
2014-Dec-17 19:25N 40°36' W 074°01'0 0.0
2014-Dec-17 18:31N 40°36' W 074°01'0 0.1
2014-Dec-17 17:13N 40°36' W 074°01'0 0.0
2014-Dec-17 16:31N 40°36' W 074°01'0 0.0
2014-Dec-17 15:25N 40°36' W 074°01'0 0.0
2014-Dec-17 14:04N 40°36' W 074°01'0 0.1
2014-Dec-17 13:31N 40°36' W 074°01'0 0.0
2014-Dec-17 12:31N 40°36' W 074°01'0 0.0
2014-Dec-17 11:28N 40°36' W 074°01'0 0.0
2014-Dec-17 10:13N 40°36' W 074°01'0 0.1
2014-Dec-17 09:22N 40°36' W 074°01'0 0.0
2014-Dec-17 08:31N 40°36' W 074°01'0 0.0
2014-Dec-17 07:31N 40°36' W 074°01'0 0.0
2014-Dec-17 06:28N 40°36' W 074°01'0 0.0
2014-Dec-17 05:28N 40°36' W 074°01'0 0.1
2014-Dec-17 04:25N 40°36' W 074°01'0 0.0
2014-Dec-17 03:19N 40°36' W 074°01'0 0.0
2014-Dec-17 01:28N 40°36' W 074°01'0 0.0
2014-Dec-17 00:19N 40°36' W 074°01'0 0.1
2014-Dec-16 23:26N 40°36' W 074°01'0 0.1
2014-Dec-16 22:32N 40°36' W 074°01'0 0.0
2014-Dec-16 21:32N 40°36' W 074°01'0 0.0
2014-Dec-16 20:32N 40°36' W 074°01'0 0.0
2014-Dec-16 19:32N 40°36' W 074°01'0 0.0
2014-Dec-16 18:32N 40°36' W 074°01'0 0.0
2014-Dec-16 17:29N 40°36' W 074°01'0 0.0
2014-Dec-16 16:32N 40°36' W 074°01'0 0.0
2014-Dec-16 15:32N 40°36' W 074°01'0 0.1
2014-Dec-16 14:11N 40°36' W 074°01'0 0.0
2014-Dec-16 13:32N 40°36' W 074°01'0 0.1
2014-Dec-16 12:32N 40°36' W 074°01'0 0.0
2014-Dec-16 11:29N 40°36' W 074°01'0 0.0
2014-Dec-16 10:26N 40°36' W 074°01'0 0.1
2014-Dec-16 09:32N 40°36' W 074°01'0 0.0
2014-Dec-16 08:32N 40°36' W 074°01'0 0.0
2014-Dec-16 07:32N 40°36' W 074°01'0 0.0
2014-Dec-16 06:14N 40°36' W 074°01'0 0.0
2014-Dec-16 04:08N 40°36' W 074°01'0 0.0
2014-Dec-16 03:32N 40°36' W 074°01'0 0.1
2014-Dec-16 02:14N 40°36' W 074°01'0 0.0
2014-Dec-16 01:22N 40°36' W 074°01'0 0.0
2014-Dec-15 22:23N 40°36' W 074°01'0 0.0
2014-Dec-15 21:32N 40°36' W 074°01'0 0.1
2014-Dec-15 20:32N 40°36' W 074°01'0 0.0
2014-Dec-15 19:29N 40°36' W 074°01'0 0.0
2014-Dec-15 18:32N 40°36' W 074°01'0 0.0
2014-Dec-15 17:29N 40°36' W 074°01'0 0.0
2014-Dec-15 16:26N 40°36' W 074°01'0 0.1
2014-Dec-15 15:20N 40°36' W 074°01'0 0.0
2014-Dec-15 14:08N 40°36' W 074°01'0 0.0
2014-Dec-15 13:32N 40°36' W 074°01'0 0.1
2014-Dec-15 12:23N 40°36' W 074°01'0 0.0
2014-Dec-15 11:26N 40°36' W 074°01'0 0.0
2014-Dec-15 10:23N 40°36' W 074°01'0 0.0
2014-Dec-15 09:32N 40°36' W 074°01'0 0.0
2014-Dec-15 08:29N 40°36' W 074°01'0 0.0
2014-Dec-15 07:23N 40°36' W 074°01'0 0.1
2014-Dec-15 06:29N 40°36' W 074°01'0 0.0
2014-Dec-15 05:32N 40°36' W 074°01'0 0.0
2014-Dec-15 03:29N 40°36' W 074°01'0 0.0
2014-Dec-15 01:32N 40°36' W 074°01'0 0.0
2014-Dec-15 00:32N 40°36' W 074°01'0 0.0
2014-Dec-14 22:20N 40°36' W 074°01'0 0.0
2014-Dec-14 21:23N 40°36' W 074°01'0 0.0
2014-Dec-14 20:05N 40°36' W 074°01'0 0.0
2014-Dec-14 19:26N 40°36' W 074°01'0 0.0
2014-Dec-14 18:14N 40°36' W 074°01'0 0.0
2014-Dec-14 17:20N 40°36' W 074°01'0 0.0
2014-Dec-14 16:29N 40°36' W 074°01'0 0.1
2014-Dec-14 15:29N 40°36' W 074°01'0 0.0
2014-Dec-14 14:29N 40°36' W 074°01'0 0.0
2014-Dec-14 12:05N 40°36' W 074°01'0 0.0
2014-Dec-14 11:26N 40°36' W 074°01'0 0.0
2014-Dec-14 08:26N 40°36' W 074°01'0 0.0
2014-Dec-14 07:32N 40°36' W 074°01'0 0.0
2014-Dec-14 06:29N 40°36' W 074°01'0 0.0
2014-Dec-14 05:23N 40°36' W 074°01'0 0.0
2014-Dec-14 04:26N 40°36' W 074°01'0 0.0
2014-Dec-14 03:32N 40°36' W 074°01'0 0.0
2014-Dec-14 02:20N 40°36' W 074°01'0 0.0
2014-Dec-14 00:08N 40°36' W 074°01'5 8.0
2014-Dec-13 23:30N 40°39' W 074°07'0 0.0
2014-Dec-13 22:33N 40°39' W 074°07'0 0.0
2014-Dec-13 21:33N 40°39' W 074°07'1 0.6
2014-Dec-13 20:32N 40°39' W 074°07'0 0.0
2014-Dec-13 19:32N 40°39' W 074°07'0 0.0
2014-Dec-13 18:32N 40°39' W 074°07'0 0.2
2014-Dec-13 17:33N 40°39' W 074°07'5 4.5
2014-Dec-13 16:24N 40°36' W 074°01'0 0.0
2014-Dec-13 14:03N 40°36' W 074°01'0 0.0
2014-Dec-13 13:28N 40°36' W 074°01'0 0.0
2014-Dec-13 12:34N 40°36' W 074°01'0 0.0
2014-Dec-13 11:34N 40°36' W 074°01'0 0.0
2014-Dec-13 10:28N 40°36' W 074°01'0 0.0
2014-Dec-13 09:31N 40°36' W 074°01'0 0.0
2014-Dec-13 08:30N 40°36' W 074°01'0 0.0
2014-Dec-13 07:31N 40°36' W 074°01'0 0.0
2014-Dec-13 06:30N 40°36' W 074°01'0 0.0
2014-Dec-13 04:12N 40°36' W 074°01'0 0.0
2014-Dec-13 03:09N 40°36' W 074°01'0 0.0
2014-Dec-13 02:24N 40°36' W 074°01'0 0.0
2014-Dec-13 01:09N 40°36' W 074°01'0 0.0
2014-Dec-13 00:30N 40°36' W 074°01'0 0.0
2014-Dec-12 23:24N 40°36' W 074°01'0 0.0
2014-Dec-12 22:30N 40°36' W 074°01'0 0.0
2014-Dec-12 20:18N 40°36' W 074°01'4 5.6
2014-Dec-12 19:34N 40°39' W 074°05'0 0.4
2014-Dec-12 18:33N 40°39' W 074°05'0 0.1
2014-Dec-12 17:33N 40°39' W 074°06'0 0.0
2014-Dec-12 16:30N 40°39' W 074°06'0 0.0
2014-Dec-12 15:30N 40°39' W 074°06'0 0.0
2014-Dec-12 14:33N 40°39' W 074°06'0 0.0
2014-Dec-12 13:33N 40°39' W 074°06'0 0.0
2014-Dec-12 12:24N 40°39' W 074°06'0 0.0
2014-Dec-12 11:30N 40°39' W 074°06'0 0.0
2014-Dec-12 10:33N 40°39' W 074°06'0 0.0
2014-Dec-12 09:33N 40°39' W 074°06'  

Dump ship's entire track history